Time;durP1;ratioP1;P1;durP2;ratioP2;P2;SDS_P1;SDS_P2;PMS_P1;PMS_P2;Temp;Humidity;BMP_temperature;BMP_pressure;BME280_temperature;BME280_humidity;BME280_pressure;Samples;Min_cycle;Max_cycle;Signal;HPM_P1;HPM_P2
2022/09/24 01:25:01;;;;;;;8.63;4.87;;;;;;;;;;5327886;23;20297;-93
2022/09/24 01:27:55;;;;;;;8.03;5.07;;;;;;;;;;4938629;29;20219;-95
2022/09/24 01:30:33;;;;;;;12.13;5.07;;;;;;;;;;4930347;29;20207;-93
2022/09/24 01:33:06;;;;;;;8.43;4.67;;;;;;;;;;4929798;29;20210;-94
2022/09/24 01:35:45;;;;;;;11.50;5.20;;;;;;;;;;4932606;29;20290;-93
2022/09/24 01:41:09;;;;;;;13.73;5.60;;;;;;;;;;4901964;29;20211;-92
2022/09/24 01:47:01;;;;;;;8.70;4.50;;;;;;;;;;4904253;29;20222;-92
2022/09/24 01:50:02;;;;;;;;;;;;;;;;;;;;;
2022/09/24 01:52:52;;;;;;;8.40;4.40;;;;;;;;;;4931576;29;20210;-94
2022/09/24 01:55:52;;;;;;;8.23;4.70;;;;;;;;;;4918295;29;20213;-92
2022/09/24 02:04:23;;;;;;;7.53;4.70;;;;;;;;;;4928074;29;20231;-93
2022/09/24 02:07:07;;;;;;;9.60;5.00;;;;;;;;;;4933972;29;20242;-94
2022/09/24 02:09:39;;;;;;;7.90;4.73;;;;;;;;;;4927447;29;20195;-94
2022/09/24 02:12:18;;;;;;;7.70;4.60;;;;;;;;;;4930505;29;20293;-94
2022/09/24 02:17:43;;;;;;;11.23;4.80;;;;;;;;;;4921697;29;20680;-94
2022/09/24 02:23:32;;;;;;;12.20;4.40;;;;;;;;;;4918912;29;20728;-94
2022/09/24 02:26:05;;;;;;;8.27;3.77;;;;;;;;;;4931683;29;20673;-93
2022/09/24 02:28:42;;;;;;;7.40;4.17;;;;;;;;;;4928848;29;20230;-94
2022/09/24 02:34:21;;;;;;;11.20;4.60;;;;;;;;;;4931424;29;20268;-95
2022/09/24 02:37:04;;;;;;;10.57;4.97;;;;;;;;;;4928694;29;20317;-94
2022/09/24 02:39:45;;;;;;;7.90;4.67;;;;;;;;;;4932263;29;20202;-94
2022/09/24 02:42:41;;;;;;;10.00;4.80;;;;;;;;;;4930307;29;20293;-93
2022/09/24 02:48:03;;;;;;;6.27;4.03;;;;;;;;;;4869451;29;20759;-92
2022/09/24 02:50:36;;;;;;;9.37;4.50;;;;;;;;;;4871235;29;20253;-94
2022/09/24 02:53:11;;;;;;;8.73;4.77;;;;;;;;;;4869019;29;20379;-94
2022/09/24 02:55:41;;;;;;;7.77;4.60;;;;;;;;;;4856143;29;20201;-94
2022/09/24 02:58:18;;;;;;;10.67;4.77;;;;;;;;;;4874511;29;20237;-93
2022/09/24 03:00:54;;;;;;;6.67;4.37;;;;;;;;;;4934715;29;20238;-93
2022/09/24 03:03:25;;;;;;;7.87;4.53;;;;;;;;;;4932136;29;20238;-94
2022/09/24 03:06:11;;;;;;;8.03;4.60;;;;;;;;;;4930118;29;20762;-93
2022/09/24 03:08:56;;;;;;;6.60;4.30;;;;;;;;;;4933187;29;20669;-94
2022/09/24 03:17:30;;;;;;;9.43;4.50;;;;;;;;;;4926485;29;20227;-92
2022/09/24 03:32:02;;;;;;;8.70;4.87;;;;;;;;;;4926271;29;20285;-92
2022/09/24 03:35:02;;;;;;;10.70;4.37;;;;;;;;;;4931133;28;20207;-92
2022/09/24 03:37:41;;;;;;;7.83;4.60;;;;;;;;;;4931809;29;20611;-93
2022/09/24 03:40:31;;;;;;;9.00;4.80;;;;;;;;;;4933693;29;20203;-92
2022/09/24 03:43:04;;;;;;;15.40;4.97;;;;;;;;;;4932327;29;20211;-94
2022/09/24 03:45:40;;;;;;;7.63;4.43;;;;;;;;;;4932428;29;20223;-93
2022/09/24 03:48:10;;;;;;;7.87;4.50;;;;;;;;;;4930751;29;20226;-93
2022/09/24 03:50:45;;;;;;;7.27;4.83;;;;;;;;;;4932340;29;20246;-93
2022/09/24 03:59:16;;;;;;;7.93;4.60;;;;;;;;;;4932852;29;20206;-92
2022/09/24 04:02:13;;;;;;;15.43;5.13;;;;;;;;;;4929690;29;20242;-92
2022/09/24 04:04:43;;;;;;;9.17;5.00;;;;;;;;;;4928454;29;20238;-92
2022/09/24 04:10:31;;;;;;;10.17;4.70;;;;;;;;;;4918736;29;20202;-92
2022/09/24 04:13:16;;;;;;;9.10;4.43;;;;;;;;;;4944781;29;20211;-92
2022/09/24 04:16:26;;;;;;;7.33;4.70;;;;;;;;;;4945787;29;20187;-92
2022/09/24 04:19:14;;;;;;;8.70;4.40;;;;;;;;;;4935926;29;20210;-92
2022/09/24 04:24:50;;;;;;;7.80;4.50;;;;;;;;;;4934357;29;20231;-93
2022/09/24 04:27:20;;;;;;;7.40;4.63;;;;;;;;;;4935531;29;20235;-92
2022/09/24 04:32:40;;;;;;;12.93;4.50;;;;;;;;;;4930526;29;20221;-93
2022/09/24 04:35:28;;;;;;;7.67;4.83;;;;;;;;;;4933142;29;20207;-92
2022/09/24 04:38:21;;;;;;;9.63;4.60;;;;;;;;;;4927239;29;20236;-92
2022/09/24 04:44:19;;;;;;;;;;;;;;;;;;;;;
2022/09/24 04:46:51;;;;;;;6.37;4.47;;;;;;;;;;4927848;29;20234;-95
2022/09/24 04:49:26;;;;;;;7.10;4.47;;;;;;;;;;4928413;29;20218;-93
2022/09/24 04:52:04;;;;;;;9.20;4.63;;;;;;;;;;4927483;29;20783;-93
2022/09/24 04:54:59;;;;;;;7.13;4.40;;;;;;;;;;4930868;29;20203;-93
2022/09/24 05:03:20;;;;;;;9.77;4.70;;;;;;;;;;4930524;29;20222;-92
2022/09/24 05:06:00;;;;;;;8.00;4.60;;;;;;;;;;4930074;29;20693;-93
2022/09/24 05:08:38;;;;;;;10.03;4.67;;;;;;;;;;4929915;29;20231;-92
2022/09/24 05:17:02;;;;;;;7.57;4.23;;;;;;;;;;4930596;29;20721;-92
2022/09/24 05:19:56;;;;;;;;;;;;;;;;;;;;;
2022/09/24 05:28:46;;;;;;;11.67;4.70;;;;;;;;;;4932232;28;20231;-92
2022/09/24 05:31:23;;;;;;;7.47;4.07;;;;;;;;;;4931144;29;20341;-93
2022/09/24 05:34:02;;;;;;;11.70;4.90;;;;;;;;;;4932890;29;20231;-94
2022/09/24 05:36:34;;;;;;;8.93;4.60;;;;;;;;;;4930371;29;20638;-92
2022/09/24 05:44:57;;;;;;;7.77;4.27;;;;;;;;;;4934087;29;20238;-93
2022/09/24 05:50:32;;;;;;;8.93;4.10;;;;;;;;;;4932255;29;20203;-92
2022/09/24 05:53:25;;;;;;;7.40;4.07;;;;;;;;;;4929714;29;20211;-93
2022/09/24 06:02:16;;;;;;;7.80;4.00;;;;;;;;;;4934775;29;20202;-94
2022/09/24 06:05:11;;;;;;;5.80;3.53;;;;;;;;;;4931751;29;20230;-93
2022/09/24 08:18:25;;;;;;;;;;;;;;;;;;;;;
2022/09/24 08:24:39;;;;;;;6.13;3.80;;;;;;;;;;4914257;28;20226;-93
2022/09/24 08:30:20;;;;;;;6.60;3.50;;;;;;;;;;4919083;28;20239;-92
2022/09/24 08:33:05;;;;;;;14.60;3.77;;;;;;;;;;4925053;29;20225;-93
2022/09/24 08:35:38;;;;;;;7.73;4.00;;;;;;;;;;4922895;29;20203;-92
2022/09/24 08:47:54;;;;;;;;;;;;;;;;;;;;;
2022/09/24 08:50:38;;;;;;;6.70;3.73;;;;;;;;;;4930763;29;20215;-92
2022/09/24 08:56:30;;;;;;;5.60;3.43;;;;;;;;;;4933532;29;20235;-94
2022/09/24 09:02:21;;;;;;;7.83;3.57;;;;;;;;;;4930082;29;20210;-93
2022/09/24 09:22:56;;;;;;;;;;;;;;;;;;;;;
2022/09/24 09:28:56;;;;;;;14.40;5.17;;;;;;;;;;4920485;29;20222;-92
2022/09/24 09:32:09;;;;;;;9.57;4.33;;;;;;;;;;4925909;29;20240;-93
2022/09/24 09:38:18;;;;;;;13.97;3.97;;;;;;;;;;4923201;29;20234;-93
2022/09/24 09:44:09;;;;;;;7.80;3.70;;;;;;;;;;4909106;29;20219;-93
2022/09/24 09:46:55;;;;;;;7.03;3.60;;;;;;;;;;4941526;29;20219;-94
2022/09/24 10:44:02;;;;;;;6.53;2.90;;;;;;;;;;5479996;23;20237;-88
2022/09/24 10:46:44;;;;;;;6.03;2.77;;;;;;;;;;4964214;28;20324;-89
2022/09/24 10:49:15;;;;;;;4.07;2.57;;;;;;;;;;4949410;28;20206;-88
2022/09/24 10:51:48;;;;;;;9.77;3.27;;;;;;;;;;4962423;28;20207;-88
2022/09/24 10:54:34;;;;;;;5.27;2.37;;;;;;;;;;4939148;28;20236;-92
2022/09/24 10:57:07;;;;;;;4.50;2.60;;;;;;;;;;4941117;28;20230;-85
2022/09/24 10:59:46;;;;;;;6.23;2.80;;;;;;;;;;4948458;28;20203;-88
2022/09/24 11:02:34;;;;;;;7.67;2.77;;;;;;;;;;4947707;28;20210;-90
2022/09/24 11:05:05;;;;;;;5.57;3.00;;;;;;;;;;4938220;28;20329;-89
2022/09/24 11:07:40;;;;;;;6.63;2.57;;;;;;;;;;4946902;28;20362;-88
2022/09/24 11:10:18;;;;;;;5.60;2.80;;;;;;;;;;4954743;28;20210;-94
2022/09/24 11:13:10;;;;;;;6.17;2.80;;;;;;;;;;4972040;28;20189;-93
2022/09/24 11:15:58;;;;;;;8.27;2.33;;;;;;;;;;4926481;29;20234;-94
2022/09/24 11:18:44;;;;;;;3.50;2.50;;;;;;;;;;4960758;28;20230;-94
2022/09/24 12:44:33;;;;;;;3.37;2.03;;;;;;;;;;5129120;23;20337;-88
2022/09/24 12:47:05;;;;;;;4.07;2.40;;;;;;;;;;4949923;28;20231;-89
2022/09/24 12:49:39;;;;;;;4.33;2.33;;;;;;;;;;4945255;28;20209;-86
2022/09/24 12:54:43;;;;;;;4.90;2.40;;;;;;;;;;4976323;23;20244;-91
2022/09/24 12:57:14;;;;;;;5.07;2.40;;;;;;;;;;4964948;28;20356;-92
2022/09/24 12:59:51;;;;;;;5.33;2.63;;;;;;;;;;4968460;28;20206;-88
2022/09/24 13:02:22;;;;;;;5.23;2.40;;;;;;;;;;4967959;28;20210;-91
2022/09/24 13:05:05;;;;;;;4.97;2.83;;;;;;;;;;4964509;28;20233;-91
2022/09/24 13:07:34;;;;;;;5.87;2.90;;;;;;;;;;4966441;28;20225;-87
2022/09/24 13:10:26;;;;;;;8.53;2.60;;;;;;;;;;4973164;28;20217;-94
2022/09/24 13:12:59;;;;;;;4.73;2.30;;;;;;;;;;4977413;28;20293;-94
2022/09/24 13:15:35;;;;;;;2.80;2.17;;;;;;;;;;4976109;28;20198;-92
2022/09/24 13:18:23;;;;;;;7.57;2.90;;;;;;;;;;4984679;28;20281;-92
2022/09/24 13:21:02;;;;;;;5.20;2.57;;;;;;;;;;4990034;28;20333;-93
2022/09/24 13:23:43;;;;;;;4.13;2.30;;;;;;;;;;4986869;28;20201;-91
2022/09/24 13:26:14;;;;;;;5.10;2.50;;;;;;;;;;4971957;28;20234;-91
2022/09/24 13:28:54;;;;;;;6.17;2.40;;;;;;;;;;4970096;28;20264;-93
2022/09/24 13:31:27;;;;;;;4.77;2.70;;;;;;;;;;4968936;28;20209;-91
2022/09/24 13:33:59;;;;;;;4.77;2.50;;;;;;;;;;4975101;28;20694;-91
2022/09/24 13:36:31;;;;;;;3.30;2.20;;;;;;;;;;4962633;28;20225;-89
2022/09/24 13:39:02;;;;;;;5.73;2.43;;;;;;;;;;4962664;28;20624;-91
2022/09/24 13:41:33;;;;;;;8.30;2.43;;;;;;;;;;4968431;28;20209;-90
2022/09/24 13:44:03;;;;;;;6.50;2.53;;;;;;;;;;4965403;28;20229;-91
2022/09/24 13:46:35;;;;;;;6.20;2.73;;;;;;;;;;4966132;28;20887;-90
2022/09/24 13:49:05;;;;;;;6.33;2.87;;;;;;;;;;4964766;28;20214;-92
2022/09/24 13:51:34;;;;;;;9.57;2.57;;;;;;;;;;4967082;28;20202;-91
2022/09/24 13:54:05;;;;;;;3.27;1.97;;;;;;;;;;4968019;28;20297;-94
2022/09/24 13:56:33;;;;;;;4.13;2.37;;;;;;;;;;4963077;28;20262;-90
2022/09/24 13:59:05;;;;;;;3.70;2.33;;;;;;;;;;4967821;28;20220;-91
2022/09/24 14:01:40;;;;;;;6.70;2.27;;;;;;;;;;4967803;28;20205;-92
2022/09/24 14:04:17;;;;;;;5.73;2.33;;;;;;;;;;4949933;28;20226;-93
2022/09/24 14:06:49;;;;;;;16.40;7.50;;;;;;;;;;4968153;28;20237;-92
2022/09/24 14:09:18;;;;;;;6.27;2.37;;;;;;;;;;4971263;28;20209;-93
2022/09/24 14:11:52;;;;;;;4.50;2.07;;;;;;;;;;4977823;28;21160;-93
2022/09/24 14:14:20;;;;;;;7.73;2.47;;;;;;;;;;4966711;28;20222;-89
2022/09/24 14:16:49;;;;;;;5.80;2.63;;;;;;;;;;4969210;28;20224;-92
2022/09/24 14:19:20;;;;;;;4.67;2.00;;;;;;;;;;4969412;28;20220;-92
2022/09/24 14:21:50;;;;;;;4.77;2.50;;;;;;;;;;4974391;28;20213;-91
2022/09/24 14:24:20;;;;;;;6.07;2.10;;;;;;;;;;4971454;28;20214;-92
2022/09/24 14:26:50;;;;;;;12.20;2.67;;;;;;;;;;4977485;28;20726;-91
2022/09/24 14:29:22;;;;;;;15.67;3.47;;;;;;;;;;4974760;28;20194;-93
2022/09/24 14:31:52;;;;;;;7.83;2.77;;;;;;;;;;4970426;28;20254;-92
2022/09/24 14:34:27;;;;;;;3.57;2.13;;;;;;;;;;4975191;28;20229;-89
2022/09/24 14:36:57;;;;;;;3.43;1.97;;;;;;;;;;4985882;28;20269;-91
2022/09/24 14:39:29;;;;;;;3.27;1.97;;;;;;;;;;4984576;28;20201;-90
2022/09/24 14:41:58;;;;;;;5.47;1.97;;;;;;;;;;4972460;28;20226;-90
2022/09/24 14:44:27;;;;;;;6.57;2.30;;;;;;;;;;4978356;28;20205;-90
2022/09/24 14:46:59;;;;;;;15.90;3.80;;;;;;;;;;4982876;28;20230;-89
2022/09/24 14:49:30;;;;;;;6.17;2.50;;;;;;;;;;4976827;28;20225;-89
2022/09/24 14:51:59;;;;;;;9.17;2.10;;;;;;;;;;4974493;28;20214;-91
2022/09/24 14:54:31;;;;;;;4.30;2.30;;;;;;;;;;4978507;28;20218;-92
2022/09/24 14:57:09;;;;;;;1.97;1.50;;;;;;;;;;4984519;28;20328;-92
2022/09/24 14:59:38;;;;;;;4.87;1.90;;;;;;;;;;4978067;28;20216;-91
2022/09/24 15:02:16;;;;;;;4.23;1.93;;;;;;;;;;4975886;28;20270;-91
2022/09/24 15:04:47;;;;;;;4.33;1.87;;;;;;;;;;4977282;28;20281;-91
2022/09/24 15:07:19;;;;;;;5.47;1.93;;;;;;;;;;4971613;28;20234;-90
2022/09/24 15:09:50;;;;;;;8.63;2.13;;;;;;;;;;4972257;28;20206;-90
2022/09/24 15:12:19;;;;;;;3.27;2.00;;;;;;;;;;4972176;28;20206;-91
2022/09/24 15:14:59;;;;;;;6.07;2.97;;;;;;;;;;4970141;28;20285;-89
2022/09/24 15:17:31;;;;;;;4.17;2.00;;;;;;;;;;4973251;28;20225;-90
2022/09/24 15:20:00;;;;;;;5.40;2.00;;;;;;;;;;4975401;28;20245;-90
2022/09/24 15:22:28;;;;;;;10.73;1.73;;;;;;;;;;4974343;28;20218;-91
2022/09/24 15:24:55;;;;;;;3.73;2.10;;;;;;;;;;4971363;28;20755;-89
2022/09/24 15:27:25;;;;;;;4.50;2.40;;;;;;;;;;4974853;28;20240;-90
2022/09/24 15:29:55;;;;;;;5.27;2.67;;;;;;;;;;4980410;28;20205;-92
2022/09/24 15:32:43;;;;;;;7.83;3.67;;;;;;;;;;4979135;28;20246;-91
2022/09/24 15:35:17;;;;;;;10.97;3.50;;;;;;;;;;4980451;28;20214;-89
2022/09/24 15:37:45;;;;;;;5.87;2.97;;;;;;;;;;4981163;28;20316;-92
2022/09/24 15:40:21;;;;;;;5.40;3.27;;;;;;;;;;4977828;28;20210;-91
2022/09/24 15:42:49;;;;;;;5.13;2.53;;;;;;;;;;4982467;28;20205;-91
2022/09/24 15:45:20;;;;;;;5.83;2.57;;;;;;;;;;4981063;28;20220;-93
2022/09/24 15:47:53;;;;;;;5.43;2.57;;;;;;;;;;4994511;28;20197;-93
2022/09/24 15:50:22;;;;;;;7.27;2.20;;;;;;;;;;4998982;28;20209;-90
2022/09/24 15:52:51;;;;;;;4.83;2.20;;;;;;;;;;4982440;28;20213;-91
2022/09/24 15:55:22;;;;;;;4.50;2.50;;;;;;;;;;4975772;28;20214;-92
2022/09/24 15:57:53;;;;;;;4.80;2.13;;;;;;;;;;4984455;28;20221;-92
2022/09/24 16:00:29;;;;;;;6.70;2.07;;;;;;;;;;4984851;28;20672;-86
2022/09/24 16:03:04;;;;;;;6.30;2.30;;;;;;;;;;4969698;28;20213;-90
2022/09/24 16:05:32;;;;;;;5.63;1.93;;;;;;;;;;4982551;28;20663;-90
2022/09/24 16:07:59;;;;;;;3.23;2.27;;;;;;;;;;4971053;28;20769;-90
2022/09/24 16:10:29;;;;;;;5.90;2.80;;;;;;;;;;4969222;28;20260;-89
2022/09/24 16:12:58;;;;;;;8.67;3.30;;;;;;;;;;4969895;28;20203;-88
2022/09/24 16:15:27;;;;;;;8.10;2.87;;;;;;;;;;4971052;28;20264;-89
2022/09/24 16:17:55;;;;;;;4.60;2.40;;;;;;;;;;4968306;28;20550;-89
2022/09/24 16:20:24;;;;;;;6.97;2.03;;;;;;;;;;4979510;28;20580;-89
2022/09/24 16:22:52;;;;;;;5.23;2.23;;;;;;;;;;4974221;28;20552;-87
2022/09/24 16:25:20;;;;;;;4.20;2.47;;;;;;;;;;4962713;28;20290;-89
2022/09/24 16:27:47;;;;;;;5.40;2.20;;;;;;;;;;4963686;28;20230;-91
2022/09/24 16:30:16;;;;;;;6.87;2.80;;;;;;;;;;4966550;28;20206;-89
2022/09/24 16:32:45;;;;;;;7.90;3.17;;;;;;;;;;4969923;28;20218;-89
2022/09/24 16:35:12;;;;;;;7.77;2.80;;;;;;;;;;4968273;28;20206;-90
2022/09/24 16:37:41;;;;;;;5.47;3.20;;;;;;;;;;4967184;28;20229;-90
2022/09/24 16:40:10;;;;;;;6.63;3.10;;;;;;;;;;4964881;28;20210;-90
2022/09/24 16:42:38;;;;;;;6.10;3.53;;;;;;;;;;4968801;28;20301;-90
2022/09/24 16:45:09;;;;;;;8.07;3.47;;;;;;;;;;4962674;28;20249;-89
2022/09/24 16:47:37;;;;;;;7.23;3.40;;;;;;;;;;4964583;28;20233;-88
2022/09/24 16:50:06;;;;;;;5.50;3.17;;;;;;;;;;4967372;28;20210;-88
2022/09/24 16:52:33;;;;;;;4.50;2.87;;;;;;;;;;4965759;28;20216;-89
2022/09/24 16:55:03;;;;;;;5.13;3.63;;;;;;;;;;4971492;28;20312;-90
2022/09/24 16:57:30;;;;;;;6.97;3.80;;;;;;;;;;4983939;28;20205;-90
2022/09/24 16:59:58;;;;;;;8.13;4.00;;;;;;;;;;4991728;28;20269;-89
2022/09/24 17:02:25;;;;;;;12.17;3.90;;;;;;;;;;4980123;28;20210;-89
2022/09/24 17:04:54;;;;;;;10.60;4.40;;;;;;;;;;4971894;28;20202;-89
2022/09/24 17:07:23;;;;;;;8.43;4.33;;;;;;;;;;4972965;28;20613;-89
2022/09/24 17:12:38;;;;;;;8.43;4.93;;;;;;;;;;4965307;28;20202;-89
2022/09/24 17:15:08;;;;;;;8.47;4.80;;;;;;;;;;4971998;28;20210;-88
2022/09/24 17:17:37;;;;;;;10.47;5.47;;;;;;;;;;4967843;28;20222;-89
2022/09/24 17:20:05;;;;;;;9.47;6.00;;;;;;;;;;4969879;28;20202;-89
2022/09/24 17:22:33;;;;;;;9.77;6.05;;;;;;;;;;4963339;28;20512;-90
2022/09/24 17:25:00;;;;;;;11.33;5.63;;;;;;;;;;4968003;28;20206;-89
2022/09/24 17:27:33;;;;;;;8.87;5.43;;;;;;;;;;4965567;28;20234;-88
2022/09/24 17:30:03;;;;;;;14.03;6.10;;;;;;;;;;4970540;28;20209;-92
2022/09/24 17:32:30;;;;;;;18.00;6.20;;;;;;;;;;4972054;28;20213;-92
2022/09/24 17:35:00;;;;;;;12.40;6.17;;;;;;;;;;4972245;28;20277;-94
2022/09/24 17:37:28;;;;;;;11.57;6.20;;;;;;;;;;4971231;28;20719;-92
2022/09/24 17:39:55;;;;;;;13.77;6.83;;;;;;;;;;4974947;28;20210;-91
2022/09/24 17:42:24;;;;;;;11.93;6.83;;;;;;;;;;4964390;28;20233;-92
2022/09/24 17:44:52;;;;;;;16.80;8.67;;;;;;;;;;4969483;28;20241;-91
2022/09/24 17:47:21;;;;;;;14.50;8.33;;;;;;;;;;4974560;28;20238;-91
2022/09/24 17:49:50;;;;;;;23.13;12.30;;;;;;;;;;4971136;28;20304;-91
2022/09/24 17:52:19;;;;;;;26.77;11.57;;;;;;;;;;4967763;28;20216;-91
2022/09/24 17:54:46;;;;;;;21.83;12.43;;;;;;;;;;4971197;28;20221;-92
2022/09/24 17:57:14;;;;;;;26.80;13.90;;;;;;;;;;4972365;28;20237;-92
2022/09/24 17:59:45;;;;;;;24.60;14.20;;;;;;;;;;4967618;28;20214;-91
2022/09/24 18:02:15;;;;;;;25.93;14.63;;;;;;;;;;4970137;28;20296;-92
2022/09/24 18:04:59;;;;;;;22.90;13.30;;;;;;;;;;4968136;28;21504;-90
2022/09/24 18:07:32;;;;;;;16.03;10.60;;;;;;;;;;4967717;28;20316;-90
2022/09/24 18:09:59;;;;;;;18.53;9.97;;;;;;;;;;4966826;28;20277;-91
2022/09/24 18:12:28;;;;;;;14.80;8.60;;;;;;;;;;4968955;28;20206;-91
2022/09/24 18:14:55;;;;;;;18.17;8.57;;;;;;;;;;4967072;28;20213;-91
2022/09/24 18:17:26;;;;;;;18.30;9.93;;;;;;;;;;4966408;28;20254;-91
2022/09/24 18:19:58;;;;;;;27.60;10.33;;;;;;;;;;4968754;28;20696;-91
2022/09/24 18:22:28;;;;;;;20.57;10.60;;;;;;;;;;4964218;28;20271;-90
2022/09/24 18:25:04;;;;;;;21.00;11.67;;;;;;;;;;4966598;28;20206;-90
2022/09/24 18:27:45;;;;;;;20.37;10.70;;;;;;;;;;4968614;28;20240;-90
2022/09/24 18:33:08;;;;;;;20.23;10.63;;;;;;;;;;4978326;28;20198;-89
2022/09/24 18:35:42;;;;;;;23.53;11.70;;;;;;;;;;4971829;28;20201;-90
2022/09/24 18:38:11;;;;;;;24.93;11.23;;;;;;;;;;4971006;28;20222;-91
2022/09/24 18:40:48;;;;;;;27.97;13.33;;;;;;;;;;4973257;28;20202;-91
2022/09/24 18:43:17;;;;;;;22.40;11.70;;;;;;;;;;4972224;28;20240;-91
2022/09/24 18:45:46;;;;;;;22.40;12.37;;;;;;;;;;4970462;28;20314;-90
2022/09/24 18:48:31;;;;;;;23.07;12.73;;;;;;;;;;4972552;28;20229;-90
2022/09/24 18:51:14;;;;;;;22.73;12.00;;;;;;;;;;4973615;28;20253;-92
2022/09/24 18:53:52;;;;;;;16.90;10.90;;;;;;;;;;4976784;28;20226;-91
2022/09/24 18:56:19;;;;;;;27.87;13.93;;;;;;;;;;4970624;28;20210;-90
2022/09/24 19:01:31;;;;;;;24.53;12.30;;;;;;;;;;4974402;28;20205;-91
2022/09/24 19:04:00;;;;;;;25.90;12.47;;;;;;;;;;4974973;28;20210;-93
